Time;durP1;ratioP1;P1;durP2;ratioP2;P2;SDS_P1;SDS_P2;PMS_P1;PMS_P2;Temp;Humidity;BMP_temperature;BMP_pressure;BME280_temperature;BME280_humidity;BME280_pressure;Samples;Min_cycle;Max_cycle;Signal;HPM_P1;HPM_P2
2024/04/23 00:01:27;;;;;;;5.28;4.78;;;;;;;4.19;65.66;99355.13;5433720;26;19995;-73
2024/04/23 00:03:52;;;;;;;5.38;4.80;;;;;;;4.17;65.74;99354.47;5419739;26;20010;-73
2024/04/23 00:06:18;;;;;;;8.30;4.72;;;;;;;4.08;66.14;99341.63;5431592;26;20003;-73
2024/04/23 00:08:43;;;;;;;5.60;4.57;;;;;;;4.06;66.15;99339.19;5418417;26;20000;-74
2024/04/23 00:11:08;;;;;;;9.40;4.50;;;;;;;4.04;66.02;99341.19;5415591;26;20309;-73
2024/04/23 00:13:34;;;;;;;8.00;4.43;;;;;;;3.96;66.38;99336.06;5425797;26;19995;-73
2024/04/23 00:15:59;;;;;;;6.82;5.03;;;;;;;4.00;66.48;99336.50;5414950;26;20022;-74
2024/04/23 00:18:24;;;;;;;7.82;5.32;;;;;;;4.00;66.49;99332.03;5421372;26;20003;-73
2024/04/23 00:20:50;;;;;;;7.45;5.05;;;;;;;3.97;66.30;99332.44;5433624;26;19991;-73
2024/04/23 00:23:16;;;;;;;6.97;4.18;;;;;;;3.98;65.91;99323.47;5426365;26;20007;-73
2024/04/23 00:25:41;;;;;;;5.43;4.47;;;;;;;3.88;66.37;99312.47;5420793;26;20007;-73
2024/04/23 00:28:07;;;;;;;9.57;4.80;;;;;;;3.93;66.18;99320.63;5441885;26;20003;-73
2024/04/23 00:30:32;;;;;;;6.72;4.68;;;;;;;4.01;66.26;99325.75;5425141;26;19999;-73
2024/04/23 00:32:57;;;;;;;6.47;4.95;;;;;;;3.89;65.98;99310.66;5434900;26;20007;-73
2024/04/23 00:35:23;;;;;;;7.07;5.25;;;;;;;3.85;66.53;99326.03;5434680;26;20272;-73
2024/04/23 00:37:48;;;;;;;8.20;5.32;;;;;;;3.81;66.42;99322.16;5428359;26;20002;-73
2024/04/23 00:40:13;;;;;;;6.70;5.15;;;;;;;3.80;66.75;99329.25;5414894;26;19992;-73
2024/04/23 00:42:40;;;;;;;6.75;5.50;;;;;;;3.77;66.52;99310.38;5419674;26;20063;-73
2024/04/23 00:45:07;;;;;;;10.00;5.25;;;;;;;3.72;66.94;99302.19;5419679;26;19991;-73
2024/04/23 00:47:33;;;;;;;7.40;5.30;;;;;;;3.73;66.62;99309.91;5439025;26;19995;-73
2024/04/23 00:50:00;;;;;;;8.02;5.38;;;;;;;3.75;66.51;99310.56;5417912;26;20015;-73
2024/04/23 00:52:26;;;;;;;5.28;4.47;;;;;;;3.79;66.13;99321.53;5399023;26;20046;-73
2024/04/23 00:54:52;;;;;;;8.98;5.57;;;;;;;3.80;66.30;99320.53;5418626;26;20327;-73
2024/04/23 00:57:18;;;;;;;9.55;6.10;;;;;;;3.78;66.14;99315.44;5425341;26;20000;-73
2024/04/23 00:59:43;;;;;;;6.78;5.65;;;;;;;3.66;66.15;99311.72;5420891;26;20011;-73
2024/04/23 01:02:08;;;;;;;9.95;5.63;;;;;;;3.65;66.55;99319.81;5435406;26;19995;-73
2024/04/23 01:04:34;;;;;;;9.70;4.72;;;;;;;3.56;66.44;99303.31;5425662;26;20071;-73
2024/04/23 01:07:00;;;;;;;7.75;5.88;;;;;;;3.66;66.76;99318.81;5417797;26;20096;-73
2024/04/23 01:09:25;;;;;;;6.75;4.95;;;;;;;3.51;66.43;99297.00;5433026;26;19996;-73
2024/04/23 01:11:51;;;;;;;9.65;4.78;;;;;;;3.59;66.24;99300.28;5432762;26;20007;-73
2024/04/23 01:14:17;;;;;;;7.55;5.57;;;;;;;3.69;66.55;99316.59;5428089;26;19999;-73
2024/04/23 01:16:45;;;;;;;8.55;5.53;;;;;;;3.58;66.76;99308.41;5427648;26;20010;-72
2024/04/23 01:19:21;;;;;;;8.40;5.45;;;;;;;3.59;66.08;99307.38;5422761;26;19995;-72
2024/04/23 01:22:20;;;;;;;8.65;5.82;;;;;;;3.61;66.15;99321.22;5411302;26;19999;-72
2024/04/23 01:25:14;;;;;;;5.60;4.70;;;;;;;3.57;66.36;99319.97;5420910;26;19991;-72
2024/04/23 01:27:40;;;;;;;8.93;5.68;;;;;;;3.54;66.37;99322.97;5432624;26;20436;-73
2024/04/23 01:30:06;;;;;;;8.23;5.93;;;;;;;3.52;66.28;99317.06;5415628;26;20030;-72
2024/04/23 01:32:35;;;;;;;8.13;5.32;;;;;;;3.44;66.67;99317.22;5417790;26;20339;-72
2024/04/23 01:35:02;;;;;;;7.78;5.50;;;;;;;3.45;66.90;99324.94;5417180;26;20432;-72
2024/04/23 01:37:28;;;;;;;13.43;7.25;;;;;;;3.35;67.10;99302.53;5417316;26;20434;-72
2024/04/23 01:39:55;;;;;;;11.98;5.95;;;;;;;3.43;66.62;99303.22;5416281;26;19999;-72
2024/04/23 01:42:22;;;;;;;9.05;5.78;;;;;;;3.26;67.04;99283.41;5424282;26;20379;-72
2024/04/23 01:44:48;;;;;;;8.85;5.90;;;;;;;3.41;67.01;99307.88;5428559;26;20014;-73
2024/04/23 01:47:13;;;;;;;8.60;6.47;;;;;;;3.40;67.02;99300.97;5432097;26;20803;-72
2024/04/23 01:49:39;;;;;;;10.60;6.95;;;;;;;3.35;66.52;99297.25;5423031;26;20455;-72
2024/04/23 01:52:05;;;;;;;10.63;5.80;;;;;;;3.28;66.77;99283.19;5434871;26;20007;-72
2024/04/23 01:54:30;;;;;;;6.38;5.20;;;;;;;3.44;66.48;99315.41;5434097;26;20003;-72
2024/04/23 01:56:56;;;;;;;8.32;6.10;;;;;;;3.44;66.93;99320.69;5428280;26;20010;-72
2024/04/23 01:59:21;;;;;;;8.57;6.05;;;;;;;3.42;66.89;99314.78;5427165;26;20447;-72
2024/04/23 02:01:52;;;;;;;8.60;5.90;;;;;;;3.35;66.59;99307.81;5421886;26;20009;-72
2024/04/23 02:04:18;;;;;;;8.77;5.68;;;;;;;3.30;66.69;99312.88;5423161;26;20003;-72
2024/04/23 02:06:45;;;;;;;9.40;6.60;;;;;;;3.34;66.50;99306.19;5425278;26;20339;-74
2024/04/23 02:09:10;;;;;;;7.28;6.30;;;;;;;3.37;66.90;99309.25;5420166;26;20011;-73
2024/04/23 02:11:36;;;;;;;14.18;6.38;;;;;;;3.32;66.89;99305.56;5420652;26;20003;-73
2024/04/23 02:14:01;;;;;;;7.53;6.13;;;;;;;3.19;67.04;99294.91;5419743;26;20010;-73
2024/04/23 02:16:26;;;;;;;7.57;6.10;;;;;;;3.16;67.05;99296.09;5415954;26;20499;-73
2024/04/23 02:18:52;;;;;;;8.85;5.97;;;;;;;3.21;66.68;99300.81;5433128;26;20003;-72
2024/04/23 02:21:17;;;;;;;7.75;6.85;;;;;;;3.16;66.90;99297.91;5388329;26;20320;-72
2024/04/23 02:23:42;;;;;;;9.57;6.22;;;;;;;3.12;67.00;99300.13;5441273;26;20621;-73
2024/04/23 02:26:08;;;;;;;8.63;6.88;;;;;;;3.10;67.31;99296.88;5429975;26;20021;-73
2024/04/23 02:28:33;;;;;;;7.95;6.57;;;;;;;3.10;67.54;99291.59;5431377;26;20009;-73
2024/04/23 02:30:58;;;;;;;9.20;6.03;;;;;;;3.17;66.93;99296.94;5422363;26;20010;-72
2024/04/23 02:33:24;;;;;;;8.07;6.30;;;;;;;3.18;66.78;99298.53;5422967;26;20008;-73
2024/04/23 02:35:49;;;;;;;8.88;6.40;;;;;;;3.20;67.32;99299.16;5423826;26;20005;-73
2024/04/23 02:38:14;;;;;;;9.60;6.43;;;;;;;2.52;68.50;99303.16;5422503;26;20006;-73
2024/04/23 02:40:40;;;;;;;9.15;7.18;;;;;;;2.96;67.42;99295.09;5425449;26;20067;-73
2024/04/23 02:43:05;;;;;;;9.38;7.20;;;;;;;3.12;67.39;99299.31;5425192;26;22478;-73
2024/04/23 02:45:31;;;;;;;10.45;7.25;;;;;;;3.12;66.76;99294.03;5423128;26;20779;-72
2024/04/23 02:47:56;;;;;;;13.15;6.97;;;;;;;3.03;67.26;99286.28;5420364;26;22168;-72
2024/04/23 02:50:21;;;;;;;9.18;7.43;;;;;;;2.99;67.37;99285.00;5428209;26;20044;-73
2024/04/23 02:52:47;;;;;;;8.98;6.95;;;;;;;3.01;67.00;99284.81;5427382;26;20084;-73
2024/04/23 02:55:12;;;;;;;15.73;10.25;;;;;;;2.91;67.36;99284.31;5425468;26;19999;-73
2024/04/23 02:57:38;;;;;;;9.80;7.03;;;;;;;2.84;67.42;99265.78;5420542;26;20076;-72
2024/04/23 03:00:05;;;;;;;13.68;6.82;;;;;;;2.80;67.60;99271.63;5426282;26;20003;-72
2024/04/23 03:02:30;;;;;;;9.35;6.78;;;;;;;2.91;67.17;99282.50;5423147;26;20346;-72
2024/04/23 03:04:55;;;;;;;8.18;6.93;;;;;;;2.94;67.19;99282.13;5422744;26;20047;-73
2024/04/23 03:07:21;;;;;;;10.73;7.18;;;;;;;2.90;67.79;99283.50;5428207;26;19994;-73
2024/04/23 03:09:46;;;;;;;9.85;7.28;;;;;;;3.01;67.36;99282.97;5425364;26;19995;-73
2024/04/23 03:12:11;;;;;;;9.95;8.45;;;;;;;2.99;67.39;99290.25;5419937;26;20007;-73
2024/04/23 03:14:37;;;;;;;10.80;7.45;;;;;;;2.95;67.36;99272.38;5422193;26;20010;-73
2024/04/23 03:17:02;;;;;;;10.48;6.55;;;;;;;2.89;66.84;99279.22;5421475;26;20007;-73
2024/04/23 03:19:27;;;;;;;9.20;6.82;;;;;;;2.91;66.82;99274.59;5421023;26;20064;-73
2024/04/23 03:21:54;;;;;;;7.93;6.95;;;;;;;2.81;67.33;99265.38;5427201;26;20006;-73
2024/04/23 03:24:20;;;;;;;10.45;7.22;;;;;;;2.91;67.01;99279.03;5426123;26;20067;-73
2024/04/23 03:26:46;;;;;;;10.20;7.47;;;;;;;2.90;66.71;99258.97;5425313;26;20011;-73
2024/04/23 03:29:11;;;;;;;14.98;9.13;;;;;;;2.90;66.86;99275.59;5422523;26;20004;-73
2024/04/23 03:31:37;;;;;;;10.73;8.20;;;;;;;2.86;66.89;99273.53;5440619;26;20373;-73
2024/04/23 03:34:02;;;;;;;12.27;7.65;;;;;;;2.81;67.58;99262.72;5434039;26;20451;-73
2024/04/23 03:36:27;;;;;;;9.68;7.18;;;;;;;2.78;66.65;99255.19;5431626;26;20334;-73
2024/04/23 03:38:53;;;;;;;10.50;6.93;;;;;;;2.68;66.98;99255.53;5423623;26;20010;-73
2024/04/23 03:41:18;;;;;;;12.45;8.23;;;;;;;2.77;66.89;99272.84;5433648;26;19991;-74
2024/04/23 03:43:43;;;;;;;12.30;8.52;;;;;;;2.77;66.95;99280.75;5421385;26;20075;-73
2024/04/23 03:46:09;;;;;;;10.93;7.93;;;;;;;2.70;66.73;99260.59;5388308;26;20475;-73
2024/04/23 03:48:34;;;;;;;11.82;8.52;;;;;;;2.72;67.03;99266.50;5418124;26;19995;-74
2024/04/23 03:50:59;;;;;;;11.73;8.15;;;;;;;2.78;67.04;99268.38;5432585;26;20027;-73
2024/04/23 03:53:25;;;;;;;14.20;9.52;;;;;;;2.67;67.14;99267.06;5409664;26;20007;-74
2024/04/23 03:55:50;;;;;;;11.57;7.78;;;;;;;2.64;66.79;99253.44;5422380;26;20659;-73
2024/04/23 03:58:15;;;;;;;12.85;8.02;;;;;;;2.62;66.99;99258.88;5451586;26;20003;-73
2024/04/23 04:00:41;;;;;;;11.43;8.50;;;;;;;2.67;66.51;99259.16;5440270;26;20002;-74
2024/04/23 04:06:06;;;;;;;9.20;7.85;;;;;;;2.56;67.26;99262.28;5432337;26;20446;-74
2024/04/23 04:08:33;;;;;;;13.63;9.85;;;;;;;2.48;66.83;99256.31;5427223;26;20078;-74
2024/04/23 04:10:59;;;;;;;12.48;8.90;;;;;;;2.51;67.03;99258.59;5423607;26;20463;-74
2024/04/23 04:13:24;;;;;;;11.20;8.18;;;;;;;2.53;67.14;99265.31;5418085;26;20013;-74
2024/04/23 04:15:49;;;;;;;10.35;8.15;;;;;;;2.56;66.90;99264.91;5426774;26;20014;-74
2024/04/23 04:18:15;;;;;;;12.73;9.07;;;;;;;2.56;66.69;99258.81;5418255;26;20430;-74
2024/04/23 04:20:40;;;;;;;13.00;9.40;;;;;;;2.59;67.28;99255.81;5427421;26;19996;-73
2024/04/23 04:23:06;;;;;;;12.35;9.35;;;;;;;2.57;67.37;99263.09;5431123;26;20023;-75
2024/04/23 04:25:31;;;;;;;11.82;8.43;;;;;;;2.57;67.10;99253.38;5416113;26;20007;-74
2024/04/23 04:27:56;;;;;;;13.75;9.55;;;;;;;2.60;67.06;99257.47;5429471;26;20005;-74
2024/04/23 04:30:22;;;;;;;12.07;8.52;;;;;;;2.63;67.22;99255.25;5417772;26;19999;-74
2024/04/23 04:32:47;;;;;;;11.48;8.82;;;;;;;2.71;67.39;99267.50;5415493;26;20090;-74
2024/04/23 04:35:12;;;;;;;14.63;9.95;;;;;;;2.80;67.21;99259.28;5422851;26;20000;-74
2024/04/23 04:37:38;;;;;;;15.85;9.82;;;;;;;2.76;67.47;99255.38;5428772;26;20000;-74
2024/04/23 04:40:03;;;;;;;15.18;9.50;;;;;;;2.86;67.55;99270.91;5425561;26;20025;-74
2024/04/23 04:42:29;;;;;;;15.80;9.98;;;;;;;2.88;67.83;99271.53;5415203;26;20020;-73
2024/04/23 04:44:54;;;;;;;14.40;9.82;;;;;;;2.76;67.78;99247.47;5428837;26;20010;-74
2024/04/23 04:47:19;;;;;;;11.65;9.13;;;;;;;2.81;67.86;99250.38;5427518;26;20043;-74
2024/04/23 04:49:45;;;;;;;17.45;10.45;;;;;;;2.73;67.75;99257.59;5423718;26;20297;-74
2024/04/23 04:52:10;;;;;;;16.95;11.23;;;;;;;2.88;68.00;99261.78;5421541;26;20374;-74
2024/04/23 04:54:35;;;;;;;14.75;10.18;;;;;;;2.91;68.45;99250.84;5418171;26;19999;-74
2024/04/23 04:57:02;;;;;;;16.55;10.63;;;;;;;2.85;68.32;99243.72;5431321;26;20011;-73
2024/04/23 04:59:27;;;;;;;19.63;12.15;;;;;;;2.90;68.21;99257.16;5395506;26;19995;-74
2024/04/23 05:01:53;;;;;;;18.98;11.77;;;;;;;2.82;68.48;99262.53;5415255;26;20032;-74
2024/04/23 05:04:18;;;;;;;17.63;11.43;;;;;;;2.94;68.46;99255.75;5425491;26;19995;-74
2024/04/23 05:06:43;;;;;;;19.83;11.40;;;;;;;2.82;68.68;99236.19;5431227;26;20007;-74
2024/04/23 05:09:09;;;;;;;19.50;12.75;;;;;;;3.02;69.04;99258.25;5433015;26;19999;-74
2024/04/23 05:11:52;;;;;;;21.05;12.00;;;;;;;3.02;69.02;99255.63;5432363;26;19995;-72
2024/04/23 05:14:18;;;;;;;22.65;12.45;;;;;;;3.11;68.90;99253.66;5428838;26;20007;-72
2024/04/23 05:16:44;;;;;;;20.80;12.00;;;;;;;3.06;68.84;99247.34;5442402;26;20006;-73
2024/04/23 05:19:10;;;;;;;19.77;13.10;;;;;;;3.13;68.88;99259.56;5431775;26;20026;-73
2024/04/23 05:21:35;;;;;;;20.60;13.65;;;;;;;3.07;69.11;99243.69;5442354;26;20461;-73
2024/04/23 05:24:01;;;;;;;21.15;12.82;;;;;;;3.23;69.24;99264.50;5450447;26;19995;-73
2024/04/23 05:26:26;;;;;;;17.02;11.95;;;;;;;3.12;69.87;99262.41;5448857;26;20010;-73
2024/04/23 05:28:51;;;;;;;18.95;11.77;;;;;;;3.30;69.34;99268.03;5438994;26;20131;-73
2024/04/23 05:34:01;;;;;;;18.27;12.07;;;;;;;3.42;68.99;99277.03;5433676;26;20005;-74
2024/04/23 05:36:26;;;;;;;19.90;12.90;;;;;;;3.40;69.21;99276.41;5451148;26;19991;-73
2024/04/23 05:38:54;;;;;;;18.73;12.70;;;;;;;3.42;68.96;99275.22;5429827;26;20354;-74
2024/04/23 05:41:20;;;;;;;21.27;13.23;;;;;;;3.46;69.46;99278.28;5451211;26;20027;-74
2024/04/23 05:43:45;;;;;;;21.63;13.05;;;;;;;3.59;69.04;99273.09;5435899;26;20383;-74
2024/04/23 05:46:11;;;;;;;20.77;13.43;;;;;;;3.57;69.32;99268.00;5415215;26;19995;-73
2024/04/23 05:49:14;;;;;;;24.23;13.40;;;;;;;3.70;69.02;99276.00;5386308;26;19999;-73
2024/04/23 05:52:16;;;;;;;21.02;12.65;;;;;;;3.54;69.11;99262.28;5440019;26;19999;-75
2024/04/23 05:55:19;;;;;;;22.13;12.50;;;;;;;3.75;69.15;99255.13;5431058;26;20003;-73
2024/04/23 05:57:44;;;;;;;17.48;11.02;;;;;;;3.81;68.54;99242.97;5423778;26;19996;-73
2024/04/23 06:00:10;;;;;;;17.23;12.65;;;;;;;3.71;69.25;99268.91;5450896;26;20038;-73
2024/04/23 06:02:35;;;;;;;21.13;12.57;;;;;;;3.65;68.83;99240.63;5446963;26;19995;-73
2024/04/23 06:05:01;;;;;;;18.63;11.85;;;;;;;3.83;69.16;99253.31;5438866;26;19995;-73
2024/04/23 06:07:26;;;;;;;17.65;11.18;;;;;;;3.87;68.49;99252.75;5427693;26;20000;-73
2024/04/23 06:09:51;;;;;;;23.20;15.15;;;;;;;3.77;69.02;99247.00;5425416;26;20341;-72
2024/04/23 06:12:17;;;;;;;18.90;13.30;;;;;;;3.76;69.47;99245.38;5450709;26;19995;-73
2024/04/23 06:14:43;;;;;;;22.52;14.55;;;;;;;3.89;69.13;99249.91;5447406;26;20022;-73
2024/04/23 06:17:19;;;;;;;22.55;13.98;;;;;;;3.82;69.00;99244.59;5419670;26;20013;-73
2024/04/23 06:19:50;;;;;;;23.55;14.23;;;;;;;3.29;71.35;99259.28;5437687;26;20067;-73
2024/04/23 06:22:21;;;;;;;26.25;15.32;;;;;;;2.46;73.87;99255.69;5450433;26;20522;-73
2024/04/23 06:24:50;;;;;;;20.17;13.73;;;;;;;2.67;75.20;99247.78;5450630;26;20037;-73
2024/04/23 06:27:25;;;;;;;22.75;14.30;;;;;;;3.52;71.32;99243.19;5450379;26;20002;-73
2024/04/23 06:29:51;;;;;;;20.13;13.57;;;;;;;3.15;72.00;99254.91;5450290;26;20455;-73
2024/04/23 06:32:17;;;;;;;20.83;13.10;;;;;;;3.01;73.94;99255.81;5441637;26;20018;-73
2024/04/23 06:34:44;;;;;;;22.40;14.18;;;;;;;2.37;75.75;99228.66;5438557;26;20007;-73
2024/04/23 06:37:10;;;;;;;21.25;13.48;;;;;;;2.17;76.32;99252.13;5450443;26;20030;-72
2024/04/23 06:39:36;;;;;;;24.52;14.95;;;;;;;1.88;78.60;99246.09;5445820;26;20358;-73
2024/04/23 06:42:01;;;;;;;19.38;13.73;;;;;;;3.37;73.29;99256.50;5450452;26;20068;-73
2024/04/23 06:44:27;;;;;;;26.00;16.25;;;;;;;2.69;73.92;99251.03;5450383;26;20007;-73
2024/04/23 06:46:52;;;;;;;22.15;15.00;;;;;;;2.24;77.87;99254.84;5441335;26;20003;-73
2024/04/23 06:49:19;;;;;;;25.10;16.60;;;;;;;2.03;79.36;99255.59;5450024;26;20010;-73
2024/04/23 06:51:44;;;;;;;23.20;16.63;;;;;;;2.23;77.90;99250.56;5450163;26;20002;-72
2024/04/23 06:54:09;;;;;;;25.30;17.25;;;;;;;1.90;80.51;99250.16;5419541;26;19999;-73
2024/04/23 06:56:35;;;;;;;22.25;15.80;;;;;;;3.29;75.00;99216.25;5423534;26;19999;-73
2024/04/23 06:59:00;;;;;;;24.25;15.95;;;;;;;3.88;72.09;99237.72;5449748;26;20003;-72
2024/04/23 07:01:26;;;;;;;27.58;16.02;;;;;;;4.04;70.98;99232.13;5439672;26;20036;-73
2024/04/23 07:03:51;;;;;;;26.10;17.23;;;;;;;3.24;74.28;99240.56;5440529;26;20007;-74
2024/04/23 07:06:16;;;;;;;27.60;17.15;;;;;;;3.56;74.26;99237.34;5450101;26;20366;-73
2024/04/23 07:08:42;;;;;;;28.05;17.23;;;;;;;3.89;71.89;99234.88;5442259;26;20007;-74
2024/04/23 07:11:07;;;;;;;29.65;18.58;;;;;;;3.12;75.31;99238.66;5450178;26;20910;-73
2024/04/23 07:13:33;;;;;;;23.23;15.18;;;;;;;2.51;77.82;99243.56;5445172;26;19995;-73
2024/04/23 07:15:58;;;;;;;26.42;17.42;;;;;;;2.99;76.35;99221.72;5441354;26;20005;-74
2024/04/23 07:18:23;;;;;;;22.65;15.70;;;;;;;2.47;80.05;99233.63;5449876;26;19995;-74
2024/04/23 07:20:49;;;;;;;20.25;15.07;;;;;;;2.74;77.93;99233.69;5449768;26;20010;-73
2024/04/23 07:23:14;;;;;;;22.23;16.75;;;;;;;2.07;78.73;99232.34;5441118;26;19995;-73
2024/04/23 07:25:40;;;;;;;21.35;14.18;;;;;;;2.24;79.39;99231.13;5437216;26;20062;-73
2024/04/23 07:28:05;;;;;;;21.90;15.23;;;;;;;2.92;79.09;99223.50;5447810;26;19995;-73
2024/04/23 07:30:30;;;;;;;25.00;16.35;;;;;;;3.87;74.34;99207.84;5441592;26;20073;-73
2024/04/23 07:32:56;;;;;;;23.45;15.88;;;;;;;3.19;76.61;99213.94;5446682;26;20001;-74
2024/04/23 07:35:25;;;;;;;23.45;16.80;;;;;;;2.86;76.32;99232.16;5433101;26;20088;-73
2024/04/23 07:37:50;;;;;;;23.65;15.35;;;;;;;3.11;78.11;99224.66;5440929;26;19999;-73
2024/04/23 07:40:16;;;;;;;23.92;15.43;;;;;;;3.07;78.30;99223.41;5440863;26;20115;-74
2024/04/23 07:42:41;;;;;;;25.65;17.20;;;;;;;2.22;78.47;99207.63;5442191;26;20076;-73
2024/04/23 07:45:06;;;;;;;23.00;15.40;;;;;;;3.57;78.36;99217.03;5419656;26;20069;-73
2024/04/23 07:47:33;;;;;;;25.95;16.35;;;;;;;2.86;74.29;99210.28;5413241;26;20015;-73
2024/04/23 07:49:59;;;;;;;26.77;16.48;;;;;;;2.55;78.74;99210.59;5413661;26;20452;-73
2024/04/23 07:52:24;;;;;;;26.10;15.60;;;;;;;2.74;80.14;99209.97;5411707;26;20035;-72
2024/04/23 07:54:51;;;;;;;20.63;13.45;;;;;;;3.85;76.71;99203.78;5414117;26;20003;-73
2024/04/23 07:57:19;;;;;;;21.50;14.40;;;;;;;4.31;74.26;99202.13;5413451;26;19999;-73
2024/04/23 07:59:45;;;;;;;20.92;13.00;;;;;;;4.89;71.50;99206.66;5415805;26;20008;-73
2024/04/23 08:02:11;;;;;;;17.83;12.75;;;;;;;3.45;72.32;99208.84;5440100;26;19999;-73
2024/04/23 08:04:36;;;;;;;17.95;13.93;;;;;;;2.99;72.39;99197.19;5449217;26;20007;-72
2024/04/23 08:07:02;;;;;;;22.17;14.13;;;;;;;3.42;74.53;99193.44;5409758;26;20031;-72
2024/04/23 08:09:28;;;;;;;16.75;12.30;;;;;;;3.93;74.09;99175.41;5413164;26;19999;-73
2024/04/23 08:11:53;;;;;;;13.50;9.75;;;;;;;4.46;70.29;99194.81;5437745;26;19995;-72
2024/04/23 08:14:18;;;;;;;16.90;10.85;;;;;;;4.64;71.02;99187.13;5440166;26;19995;-72
2024/04/23 08:16:46;;;;;;;11.00;8.60;;;;;;;4.27;69.22;99185.03;5446947;26;20027;-71
2024/04/23 08:19:12;;;;;;;12.35;7.57;;;;;;;3.49;67.32;99183.72;5427157;26;19999;-72
2024/04/23 08:21:39;;;;;;;9.07;7.03;;;;;;;3.41;65.54;99177.78;5444971;26;20055;-72
2024/04/23 08:24:08;;;;;;;12.63;8.10;;;;;;;3.33;66.59;99177.94;5448774;26;20003;-72
2024/04/23 08:26:33;;;;;;;9.65;6.55;;;;;;;3.31;66.55;99159.69;5446167;26;20336;-73
2024/04/23 08:28:59;;;;;;;9.55;6.50;;;;;;;3.46;64.10;99159.53;5379599;26;20014;-73
2024/04/23 08:31:25;;;;;;;12.35;6.45;;;;;;;3.37;64.11;99172.09;5422277;26;20006;-72
2024/04/23 08:33:50;;;;;;;8.95;6.93;;;;;;;3.56;66.86;99162.66;5444613;26;20466;-73
2024/04/23 08:36:16;;;;;;;6.40;5.65;;;;;;;4.00;65.42;99170.94;5448840;26;19994;-72
2024/04/23 08:38:41;;;;;;;10.05;6.68;;;;;;;5.55;67.32;99159.75;5439012;26;20324;-73
2024/04/23 08:41:15;;;;;;;12.70;6.47;;;;;;;5.46;66.21;99152.28;5441329;26;20009;-73
2024/04/23 08:43:48;;;;;;;11.05;8.23;;;;;;;4.68;64.27;99137.31;5438004;26;20020;-72
2024/04/23 08:46:14;;;;;;;12.40;8.20;;;;;;;3.93;64.52;99156.09;5433858;26;20417;-71
2024/04/23 08:48:41;;;;;;;9.88;7.20;;;;;;;3.81;65.50;99145.28;5439989;26;20537;-73
2024/04/23 08:51:07;;;;;;;8.23;6.95;;;;;;;4.33;66.12;99144.59;5416240;26;20068;-72
2024/04/23 08:53:32;;;;;;;8.77;6.28;;;;;;;5.58;65.85;99145.31;5419156;26;20707;-72
2024/04/23 08:56:04;;;;;;;6.38;5.47;;;;;;;6.05;65.61;99126.38;5430391;26;20010;-73
2024/04/23 08:58:31;;;;;;;7.57;5.72;;;;;;;5.57;63.26;99139.19;5412321;26;20506;-73
2024/04/23 09:00:59;;;;;;;6.38;5.45;;;;;;;4.68;62.72;99139.94;5460316;26;20467;-72
2024/04/23 09:03:34;;;;;;;7.32;5.97;;;;;;;4.66;61.78;99129.59;5423967;26;20415;-72
2024/04/23 09:06:01;;;;;;;9.02;5.72;;;;;;;4.76;62.46;99134.47;5431167;26;19995;-72
2024/04/23 09:08:31;;;;;;;6.13;4.63;;;;;;;6.31;64.96;99136.81;5412016;26;20023;-71
2024/04/23 09:10:59;;;;;;;11.82;5.57;;;;;;;5.96;65.73;99125.81;5422278;26;19996;-71
2024/04/23 09:13:24;;;;;;;10.07;5.43;;;;;;;6.34;64.28;99117.84;5412680;26;20006;-71
2024/04/23 09:15:50;;;;;;;6.55;5.18;;;;;;;6.76;63.46;99133.03;5413635;26;20106;-72
2024/04/23 09:18:15;;;;;;;6.65;5.30;;;;;;;6.55;64.00;99116.69;5428709;26;19995;-72
2024/04/23 09:20:42;;;;;;;11.48;6.05;;;;;;;6.81;63.18;99111.16;5416704;26;20430;-72
2024/04/23 09:23:07;;;;;;;5.03;4.30;;;;;;;7.12;61.67;99107.59;5411645;26;20393;-72
2024/04/23 09:25:35;;;;;;;6.30;4.85;;;;;;;7.17;61.46;99103.25;5429925;26;20451;-72
2024/04/23 09:28:01;;;;;;;8.45;6.38;;;;;;;6.91;61.40;99111.47;5429809;26;20404;-71
2024/04/23 09:30:27;;;;;;;9.13;6.47;;;;;;;6.59;59.42;99096.66;5423374;26;19995;-71
2024/04/23 09:33:01;;;;;;;6.97;5.95;;;;;;;5.87;58.32;99090.00;5441010;26;20478;-71
2024/04/23 09:35:26;;;;;;;7.40;6.68;;;;;;;5.81;58.48;99108.56;5414118;26;20032;-71
2024/04/23 09:37:52;;;;;;;5.72;3.90;;;;;;;7.28;61.71;99102.50;5423468;26;19999;-72
2024/04/23 09:40:17;;;;;;;7.13;4.07;;;;;;;7.60;61.14;99097.84;5448073;26;20006;-72
2024/04/23 09:42:42;;;;;;;9.50;4.72;;;;;;;7.33;60.20;99102.66;5438590;26;20007;-72
2024/04/23 09:45:08;;;;;;;4.38;3.97;;;;;;;7.72;60.05;99098.72;5426523;26;19999;-72
2024/04/23 09:47:39;;;;;;;5.45;4.55;;;;;;;7.69;58.78;99091.19;5427977;26;20386;-72
2024/04/23 09:50:10;;;;;;;6.75;5.85;;;;;;;7.40;58.76;99091.97;5434866;26;19991;-71
2024/04/23 09:52:36;;;;;;;5.82;4.88;;;;;;;7.04;58.98;99092.75;5449469;26;20006;-71
2024/04/23 09:55:02;;;;;;;5.40;4.50;;;;;;;6.64;57.81;99092.31;5451208;26;20063;-71
2024/04/23 09:57:28;;;;;;;6.28;4.40;;;;;;;7.80;59.14;99084.34;5450772;26;20409;-71
2024/04/23 09:59:53;;;;;;;7.57;4.50;;;;;;;6.84;53.13;99062.16;5442556;26;20360;-72
2024/04/23 10:02:29;;;;;;;6.57;4.75;;;;;;;6.13;52.69;99073.13;5419815;26;20323;-71
2024/04/23 10:05:05;;;;;;;5.15;4.03;;;;;;;7.39;58.05;99071.75;5423290;26;19999;-71
2024/04/23 10:08:08;;;;;;;4.78;4.13;;;;;;;7.97;57.91;99061.41;5433286;26;20003;-72
2024/04/23 10:10:40;;;;;;;7.35;3.80;;;;;;;8.13;56.76;99058.06;5414586;26;20039;-72
2024/04/23 10:13:11;;;;;;;7.05;4.45;;;;;;;7.63;54.95;99054.91;5415177;26;19991;-73
2024/04/23 10:15:51;;;;;;;7.32;3.97;;;;;;;7.82;55.87;99048.50;5414971;26;20513;-72
2024/04/23 10:18:42;;;;;;;7.45;4.82;;;;;;;7.70;52.53;99049.50;5415544;26;19999;-71
2024/04/23 10:21:12;;;;;;;6.20;4.40;;;;;;;7.87;54.25;99048.66;5415202;26;20003;-72
2024/04/23 10:23:40;;;;;;;4.00;3.60;;;;;;;8.29;55.18;99049.50;5414886;26;20072;-73
2024/04/23 10:26:05;;;;;;;4.97;4.40;;;;;;;8.86;53.64;99027.44;5415125;26;20001;-73
2024/04/23 10:28:31;;;;;;;5.28;3.60;;;;;;;9.15;53.43;99038.97;5416899;26;20328;-73
2024/04/23 10:30:57;;;;;;;4.57;3.58;;;;;;;9.20;53.74;99030.25;5425998;26;20502;-73
2024/04/23 10:33:23;;;;;;;4.57;3.72;;;;;;;9.39;53.54;99021.09;5440931;26;20027;-73
2024/04/23 10:35:49;;;;;;;7.05;5.25;;;;;;;9.28;51.72;99011.28;5414263;26;19999;-73
2024/04/23 10:38:15;;;;;;;8.38;5.13;;;;;;;9.69;51.48;99019.81;5414646;26;20003;-73
2024/04/23 10:40:46;;;;;;;5.50;3.40;;;;;;;9.74;51.93;99019.09;5414941;26;19995;-73
2024/04/23 10:43:16;;;;;;;6.05;4.75;;;;;;;9.49;50.13;99018.59;5436337;26;20000;-74
2024/04/23 10:45:42;;;;;;;5.05;3.67;;;;;;;9.71;51.72;99011.56;5434230;26;20366;-73
2024/04/23 10:48:08;;;;;;;4.57;4.13;;;;;;;10.11;49.43;98995.53;5413746;26;20007;-73
2024/04/23 10:50:33;;;;;;;5.45;3.50;;;;;;;10.65;50.63;99013.44;5439878;26;20011;-73
2024/04/23 10:53:02;;;;;;;5.47;4.60;;;;;;;10.18;47.88;98994.28;5414257;26;20437;-73
2024/04/23 10:55:28;;;;;;;5.90;4.72;;;;;;;9.88;48.33;99012.41;5414584;26;20057;-73
2024/04/23 10:57:54;;;;;;;5.43;3.38;;;;;;;11.04;50.74;99006.25;5414279;26;20007;-73
2024/04/23 11:00:31;;;;;;;6.18;4.72;;;;;;;11.29;47.98;98995.91;5414445;26;20011;-73
2024/04/23 11:02:57;;;;;;;8.73;4.70;;;;;;;11.56;48.51;98996.72;5440429;26;19995;-73
2024/04/23 11:05:31;;;;;;;3.28;2.97;;;;;;;11.76;48.94;98983.59;5431762;26;20010;-73
2024/04/23 11:08:10;;;;;;;5.00;3.40;;;;;;;11.39;44.41;98992.50;5447324;26;19995;-73
2024/04/23 11:11:07;;;;;;;5.70;4.25;;;;;;;11.45;45.42;98988.84;5446936;26;19994;-73
2024/04/23 11:13:41;;;;;;;7.32;4.35;;;;;;;10.21;44.06;98983.16;5441029;26;19994;-73
2024/04/23 11:16:17;;;;;;;6.82;4.43;;;;;;;10.35;45.92;98976.41;5440743;26;20481;-73
2024/04/23 11:18:44;;;;;;;4.55;4.15;;;;;;;9.70;45.62;98977.97;5446500;26;20031;-73
2024/04/23 11:21:10;;;;;;;5.65;4.40;;;;;;;10.48;44.83;98967.28;5424501;26;20023;-73
2024/04/23 11:23:41;;;;;;;5.55;3.53;;;;;;;11.16;47.35;98964.22;5440603;26;20010;-73
2024/04/23 11:26:09;;;;;;;4.45;3.67;;;;;;;10.64;45.54;98960.31;5443891;26;20091;-73
2024/04/23 11:28:38;;;;;;;4.90;3.03;;;;;;;11.72;49.97;98961.09;5442177;26;19995;-73
2024/04/23 11:31:04;;;;;;;5.18;3.78;;;;;;;11.99;44.36;98956.53;5448271;26;19999;-73
2024/04/23 11:33:30;;;;;;;4.50;4.00;;;;;;;12.08;43.00;98948.06;5445954;26;20010;-73
2024/04/23 11:35:55;;;;;;;6.07;3.72;;;;;;;11.29;46.64;98958.47;5421262;26;19999;-73
2024/04/23 11:38:21;;;;;;;2.80;2.60;;;;;;;11.58;49.48;98957.19;5413924;26;20012;-73
2024/04/23 11:40:47;;;;;;;4.93;4.28;;;;;;;10.82;41.98;98954.69;5436038;26;20308;-73